sensor_id;sensor_type;location;lat;lon;timestamp;P1;durP1;ratioP1;P2;durP2;ratioP2
52798;SDS011;38667;42.872;74.622;2023-08-30T00:02:10;12.98;;;3.60;;
52798;SDS011;38667;42.872;74.622;2023-08-30T00:04:36;6.97;;;3.35;;
52798;SDS011;38667;42.872;74.622;2023-08-30T00:07:03;6.70;;;3.42;;
52798;SDS011;38667;42.872;74.622;2023-08-30T00:09:29;6.43;;;2.83;;
52798;SDS011;38667;42.872;74.622;2023-08-30T00:11:55;13.18;;;2.90;;
52798;SDS011;38667;42.872;74.622;2023-08-30T00:14:23;6.93;;;2.83;;
52798;SDS011;38667;42.872;74.622;2023-08-30T00:16:49;11.43;;;4.38;;
52798;SDS011;38667;42.872;74.622;2023-08-30T00:19:16;7.43;;;3.60;;
52798;SDS011;38667;42.872;74.622;2023-08-30T00:21:42;9.15;;;3.20;;
52798;SDS011;38667;42.872;74.622;2023-08-30T00:24:08;9.63;;;3.85;;
52798;SDS011;38667;42.872;74.622;2023-08-30T00:26:35;8.80;;;3.00;;
52798;SDS011;38667;42.872;74.622;2023-08-30T00:29:01;7.25;;;2.72;;
52798;SDS011;38667;42.872;74.622;2023-08-30T00:31:29;6.57;;;3.13;;
52798;SDS011;38667;42.872;74.622;2023-08-30T00:33:55;8.40;;;3.28;;
52798;SDS011;38667;42.872;74.622;2023-08-30T00:36:21;8.73;;;3.25;;
52798;SDS011;38667;42.872;74.622;2023-08-30T00:38:48;16.92;;;4.20;;
52798;SDS011;38667;42.872;74.622;2023-08-30T00:41:14;7.55;;;3.42;;
52798;SDS011;38667;42.872;74.622;2023-08-30T00:43:40;8.02;;;3.25;;
52798;SDS011;38667;42.872;74.622;2023-08-30T00:46:06;7.95;;;2.88;;
52798;SDS011;38667;42.872;74.622;2023-08-30T00:48:34;10.27;;;3.05;;
52798;SDS011;38667;42.872;74.622;2023-08-30T00:51:01;15.40;;;3.75;;
52798;SDS011;38667;42.872;74.622;2023-08-30T00:53:27;12.05;;;4.03;;
52798;SDS011;38667;42.872;74.622;2023-08-30T00:55:53;14.88;;;4.18;;
52798;SDS011;38667;42.872;74.622;2023-08-30T00:58:20;11.75;;;3.67;;
52798;SDS011;38667;42.872;74.622;2023-08-30T01:00:46;14.02;;;3.83;;
52798;SDS011;38667;42.872;74.622;2023-08-30T01:03:13;14.20;;;4.15;;
52798;SDS011;38667;42.872;74.622;2023-08-30T01:05:41;12.27;;;4.05;;
52798;SDS011;38667;42.872;74.622;2023-08-30T01:08:07;9.30;;;3.55;;
52798;SDS011;38667;42.872;74.622;2023-08-30T01:10:37;15.13;;;4.25;;
52798;SDS011;38667;42.872;74.622;2023-08-30T01:13:10;11.43;;;4.43;;
52798;SDS011;38667;42.872;74.622;2023-08-30T01:15:42;10.93;;;4.15;;
52798;SDS011;38667;42.872;74.622;2023-08-30T01:18:11;12.93;;;4.40;;
52798;SDS011;38667;42.872;74.622;2023-08-30T01:20:40;10.52;;;4.05;;
52798;SDS011;38667;42.872;74.622;2023-08-30T01:23:11;9.50;;;3.95;;
52798;SDS011;38667;42.872;74.622;2023-08-30T01:25:50;13.80;;;5.30;;
52798;SDS011;38667;42.872;74.622;2023-08-30T01:28:23;13.95;;;5.60;;
52798;SDS011;38667;42.872;74.622;2023-08-30T01:30:51;13.85;;;4.85;;
52798;SDS011;38667;42.872;74.622;2023-08-30T01:33:18;14.27;;;5.03;;
52798;SDS011;38667;42.872;74.622;2023-08-30T01:35:44;12.20;;;5.07;;
52798;SDS011;38667;42.872;74.622;2023-08-30T01:38:11;12.13;;;5.00;;
52798;SDS011;38667;42.872;74.622;2023-08-30T01:40:39;14.93;;;5.00;;
52798;SDS011;38667;42.872;74.622;2023-08-30T01:43:07;14.18;;;4.88;;
52798;SDS011;38667;42.872;74.622;2023-08-30T01:45:36;11.77;;;4.70;;
52798;SDS011;38667;42.872;74.622;2023-08-30T01:48:06;16.70;;;5.15;;
52798;SDS011;38667;42.872;74.622;2023-08-30T01:50:35;21.95;;;5.80;;
52798;SDS011;38667;42.872;74.622;2023-08-30T01:53:03;15.88;;;5.53;;
52798;SDS011;38667;42.872;74.622;2023-08-30T01:55:30;13.82;;;5.72;;
52798;SDS011;38667;42.872;74.622;2023-08-30T01:57:58;17.17;;;5.43;;
52798;SDS011;38667;42.872;74.622;2023-08-30T02:00:24;15.85;;;5.90;;
52798;SDS011;38667;42.872;74.622;2023-08-30T02:02:52;11.02;;;4.93;;
52798;SDS011;38667;42.872;74.622;2023-08-30T02:05:19;13.00;;;4.97;;
52798;SDS011;38667;42.872;74.622;2023-08-30T02:08:00;12.40;;;5.57;;
52798;SDS011;38667;42.872;74.622;2023-08-30T02:10:34;17.63;;;6.63;;
52798;SDS011;38667;42.872;74.622;2023-08-30T02:13:01;13.90;;;5.60;;
52798;SDS011;38667;42.872;74.622;2023-08-30T02:15:30;9.40;;;5.00;;
52798;SDS011;38667;42.872;74.622;2023-08-30T02:18:00;10.23;;;6.20;;
52798;SDS011;38667;42.872;74.622;2023-08-30T02:20:30;17.83;;;8.73;;
52798;SDS011;38667;42.872;74.622;2023-08-30T02:22:58;19.27;;;10.13;;
52798;SDS011;38667;42.872;74.622;2023-08-30T02:25:24;16.10;;;8.98;;
52798;SDS011;38667;42.872;74.622;2023-08-30T02:27:50;20.05;;;9.35;;
52798;SDS011;38667;42.872;74.622;2023-08-30T02:30:17;18.27;;;9.00;;
52798;SDS011;38667;42.872;74.622;2023-08-30T02:32:44;16.10;;;9.05;;
52798;SDS011;38667;42.872;74.622;2023-08-30T02:35:11;22.58;;;9.10;;
52798;SDS011;38667;42.872;74.622;2023-08-30T02:37:38;19.08;;;8.23;;
52798;SDS011;38667;42.872;74.622;2023-08-30T02:40:04;13.93;;;7.03;;
52798;SDS011;38667;42.872;74.622;2023-08-30T02:42:31;12.63;;;7.35;;
52798;SDS011;38667;42.872;74.622;2023-08-30T02:44:58;16.30;;;7.55;;
52798;SDS011;38667;42.872;74.622;2023-08-30T02:47:24;16.55;;;7.95;;
52798;SDS011;38667;42.872;74.622;2023-08-30T02:49:50;14.40;;;6.22;;
52798;SDS011;38667;42.872;74.622;2023-08-30T02:52:18;17.38;;;6.90;;
52798;SDS011;38667;42.872;74.622;2023-08-30T02:54:44;15.27;;;6.57;;
52798;SDS011;38667;42.872;74.622;2023-08-30T02:57:11;11.45;;;6.75;;
52798;SDS011;38667;42.872;74.622;2023-08-30T02:59:37;14.70;;;6.93;;
52798;SDS011;38667;42.872;74.622;2023-08-30T03:02:03;13.13;;;6.53;;
52798;SDS011;38667;42.872;74.622;2023-08-30T03:04:30;10.32;;;6.45;;
52798;SDS011;38667;42.872;74.622;2023-08-30T03:06:56;14.93;;;6.68;;
52798;SDS011;38667;42.872;74.622;2023-08-30T03:09:24;15.38;;;7.25;;
52798;SDS011;38667;42.872;74.622;2023-08-30T03:11:51;12.02;;;5.85;;
52798;SDS011;38667;42.872;74.622;2023-08-30T03:14:17;9.45;;;5.63;;
52798;SDS011;38667;42.872;74.622;2023-08-30T03:16:43;12.27;;;6.45;;
52798;SDS011;38667;42.872;74.622;2023-08-30T03:19:09;14.50;;;6.75;;
52798;SDS011;38667;42.872;74.622;2023-08-30T03:21:36;14.02;;;6.40;;
52798;SDS011;38667;42.872;74.622;2023-08-30T03:24:02;10.68;;;6.47;;
52798;SDS011;38667;42.872;74.622;2023-08-30T03:26:30;13.95;;;6.03;;
52798;SDS011;38667;42.872;74.622;2023-08-30T03:28:57;9.48;;;5.55;;
52798;SDS011;38667;42.872;74.622;2023-08-30T03:31:23;14.77;;;6.50;;
52798;SDS011;38667;42.872;74.622;2023-08-30T03:33:49;14.30;;;6.47;;
52798;SDS011;38667;42.872;74.622;2023-08-30T03:36:16;10.82;;;6.30;;
52798;SDS011;38667;42.872;74.622;2023-08-30T03:38:43;7.95;;;5.10;;
52798;SDS011;38667;42.872;74.622;2023-08-30T03:41:10;9.27;;;5.88;;
52798;SDS011;38667;42.872;74.622;2023-08-30T03:43:38;11.65;;;6.00;;
52798;SDS011;38667;42.872;74.622;2023-08-30T03:46:05;18.10;;;6.30;;
52798;SDS011;38667;42.872;74.622;2023-08-30T03:48:31;12.10;;;5.72;;
52798;SDS011;38667;42.872;74.622;2023-08-30T03:50:58;14.23;;;7.82;;
52798;SDS011;38667;42.872;74.622;2023-08-30T03:53:24;15.52;;;6.03;;
52798;SDS011;38667;42.872;74.622;2023-08-30T03:55:51;13.02;;;5.88;;
52798;SDS011;38667;42.872;74.622;2023-08-30T03:58:18;10.75;;;5.35;;
52798;SDS011;38667;42.872;74.622;2023-08-30T04:00:46;15.35;;;5.65;;
52798;SDS011;38667;42.872;74.622;2023-08-30T04:03:13;14.38;;;5.72;;
52798;SDS011;38667;42.872;74.622;2023-08-30T04:05:40;10.55;;;5.18;;
52798;SDS011;38667;42.872;74.622;2023-08-30T04:08:07;15.95;;;4.68;;
52798;SDS011;38667;42.872;74.622;2023-08-30T04:10:34;12.32;;;5.05;;
52798;SDS011;38667;42.872;74.622;2023-08-30T04:13:01;8.57;;;3.55;;
52798;SDS011;38667;42.872;74.622;2023-08-30T04:15:27;9.57;;;3.38;;
52798;SDS011;38667;42.872;74.622;2023-08-30T04:17:55;7.80;;;3.63;;
52798;SDS011;38667;42.872;74.622;2023-08-30T04:20:21;7.88;;;3.05;;
52798;SDS011;38667;42.872;74.622;2023-08-30T04:22:48;8.02;;;3.72;;
52798;SDS011;38667;42.872;74.622;2023-08-30T04:25:14;7.78;;;3.92;;
52798;SDS011;38667;42.872;74.622;2023-08-30T04:27:41;10.20;;;5.03;;
52798;SDS011;38667;42.872;74.622;2023-08-30T04:30:07;7.22;;;3.65;;
52798;SDS011;38667;42.872;74.622;2023-08-30T04:32:35;6.45;;;3.33;;
52798;SDS011;38667;42.872;74.622;2023-08-30T04:35:03;8.07;;;3.50;;
52798;SDS011;38667;42.872;74.622;2023-08-30T04:37:30;7.93;;;3.60;;
52798;SDS011;38667;42.872;74.622;2023-08-30T04:39:56;9.75;;;3.58;;
52798;SDS011;38667;42.872;74.622;2023-08-30T04:42:23;6.05;;;3.00;;
52798;SDS011;38667;42.872;74.622;2023-08-30T04:44:49;6.18;;;2.88;;
52798;SDS011;38667;42.872;74.622;2023-08-30T04:47:15;6.78;;;2.97;;
52798;SDS011;38667;42.872;74.622;2023-08-30T04:49:42;6.38;;;2.80;;
52798;SDS011;38667;42.872;74.622;2023-08-30T04:52:10;7.13;;;2.50;;
52798;SDS011;38667;42.872;74.622;2023-08-30T04:54:36;8.70;;;3.08;;
52798;SDS011;38667;42.872;74.622;2023-08-30T04:57:02;6.03;;;2.30;;
52798;SDS011;38667;42.872;74.622;2023-08-30T04:59:29;4.63;;;2.45;;
52798;SDS011;38667;42.872;74.622;2023-08-30T05:01:55;6.18;;;2.72;;
52798;SDS011;38667;42.872;74.622;2023-08-30T05:04:21;6.15;;;2.88;;
52798;SDS011;38667;42.872;74.622;2023-08-30T05:06:49;5.65;;;2.80;;
52798;SDS011;38667;42.872;74.622;2023-08-30T05:09:17;4.93;;;2.45;;
52798;SDS011;38667;42.872;74.622;2023-08-30T05:11:43;5.47;;;2.17;;
52798;SDS011;38667;42.872;74.622;2023-08-30T05:14:10;6.65;;;2.42;;
52798;SDS011;38667;42.872;74.622;2023-08-30T05:16:36;4.28;;;1.80;;
52798;SDS011;38667;42.872;74.622;2023-08-30T05:19:02;8.63;;;2.55;;
52798;SDS011;38667;42.872;74.622;2023-08-30T05:21:28;4.97;;;2.20;;
52798;SDS011;38667;42.872;74.622;2023-08-30T05:23:55;4.53;;;2.15;;
52798;SDS011;38667;42.872;74.622;2023-08-30T05:26:22;7.25;;;2.20;;
52798;SDS011;38667;42.872;74.622;2023-08-30T05:28:49;4.47;;;1.77;;
52798;SDS011;38667;42.872;74.622;2023-08-30T05:31:15;4.18;;;2.10;;
52798;SDS011;38667;42.872;74.622;2023-08-30T05:33:41;5.43;;;2.10;;
52798;SDS011;38667;42.872;74.622;2023-08-30T05:36:08;6.57;;;2.33;;
52798;SDS011;38667;42.872;74.622;2023-08-30T05:38:34;3.92;;;1.80;;
52798;SDS011;38667;42.872;74.622;2023-08-30T05:41:00;6.35;;;1.90;;
52798;SDS011;38667;42.872;74.622;2023-08-30T05:43:29;8.35;;;1.95;;
52798;SDS011;38667;42.872;74.622;2023-08-30T05:45:55;6.18;;;2.05;;
52798;SDS011;38667;42.872;74.622;2023-08-30T05:48:22;4.70;;;2.00;;
52798;SDS011;38667;42.872;74.622;2023-08-30T05:50:48;5.53;;;2.47;;
52798;SDS011;38667;42.872;74.622;2023-08-30T05:53:14;4.95;;;2.42;;
52798;SDS011;38667;42.872;74.622;2023-08-30T05:55:41;5.38;;;2.40;;
52798;SDS011;38667;42.872;74.622;2023-08-30T05:58:07;8.15;;;2.35;;
52798;SDS011;38667;42.872;74.622;2023-08-30T06:00:35;5.10;;;2.05;;
52798;SDS011;38667;42.872;74.622;2023-08-30T06:03:01;4.93;;;2.45;;
52798;SDS011;38667;42.872;74.622;2023-08-30T06:05:28;4.97;;;2.47;;
52798;SDS011;38667;42.872;74.622;2023-08-30T06:07:54;6.63;;;3.28;;
52798;SDS011;38667;42.872;74.622;2023-08-30T06:10:20;8.15;;;3.67;;
52798;SDS011;38667;42.872;74.622;2023-08-30T06:12:47;9.13;;;3.40;;
52798;SDS011;38667;42.872;74.622;2023-08-30T06:15:13;8.80;;;3.08;;
52798;SDS011;38667;42.872;74.622;2023-08-30T06:17:41;8.70;;;3.08;;
52798;SDS011;38667;42.872;74.622;2023-08-30T06:20:07;7.07;;;3.10;;
52798;SDS011;38667;42.872;74.622;2023-08-30T06:22:34;9.10;;;3.33;;
52798;SDS011;38667;42.872;74.622;2023-08-30T06:25:00;10.30;;;5.55;;
52798;SDS011;38667;42.872;74.622;2023-08-30T06:27:27;6.03;;;3.30;;
52798;SDS011;38667;42.872;74.622;2023-08-30T06:29:53;5.30;;;3.28;;
52798;SDS011;38667;42.872;74.622;2023-08-30T06:32:19;6.65;;;3.60;;
52798;SDS011;38667;42.872;74.622;2023-08-30T06:34:47;8.88;;;5.60;;
52798;SDS011;38667;42.872;74.622;2023-08-30T06:37:14;10.50;;;4.00;;
52798;SDS011;38667;42.872;74.622;2023-08-30T06:39:40;10.23;;;3.80;;
52798;SDS011;38667;42.872;74.622;2023-08-30T06:42:06;11.57;;;3.67;;
52798;SDS011;38667;42.872;74.622;2023-08-30T06:44:33;8.30;;;3.55;;
52798;SDS011;38667;42.872;74.622;2023-08-30T06:46:59;7.45;;;3.58;;
52798;SDS011;38667;42.872;74.622;2023-08-30T06:49:25;9.18;;;4.65;;
52798;SDS011;38667;42.872;74.622;2023-08-30T06:51:53;7.40;;;3.25;;
52798;SDS011;38667;42.872;74.622;2023-08-30T06:54:19;14.55;;;3.85;;
52798;SDS011;38667;42.872;74.622;2023-08-30T06:56:56;8.70;;;3.45;;
52798;SDS011;38667;42.872;74.622;2023-08-30T06:59:23;16.80;;;4.13;;
52798;SDS011;38667;42.872;74.622;2023-08-30T07:01:49;7.35;;;3.42;;
52798;SDS011;38667;42.872;74.622;2023-08-30T07:04:16;7.55;;;3.50;;
52798;SDS011;38667;42.872;74.622;2023-08-30T07:06:42;8.13;;;3.78;;
52798;SDS011;38667;42.872;74.622;2023-08-30T07:09:10;12.15;;;3.50;;
52798;SDS011;38667;42.872;74.622;2023-08-30T07:11:37;6.80;;;3.33;;
52798;SDS011;38667;42.872;74.622;2023-08-30T07:14:03;7.90;;;3.53;;
52798;SDS011;38667;42.872;74.622;2023-08-30T07:16:30;8.60;;;4.18;;
52798;SDS011;38667;42.872;74.622;2023-08-30T07:18:56;10.90;;;3.78;;
52798;SDS011;38667;42.872;74.622;2023-08-30T07:21:23;13.40;;;4.40;;
52798;SDS011;38667;42.872;74.622;2023-08-30T07:23:49;14.13;;;5.20;;
52798;SDS011;38667;42.872;74.622;2023-08-30T07:26:17;14.15;;;4.65;;
52798;SDS011;38667;42.872;74.622;2023-08-30T07:28:45;9.80;;;4.57;;
52798;SDS011;38667;42.872;74.622;2023-08-30T07:31:11;9.25;;;4.60;;
52798;SDS011;38667;42.872;74.622;2023-08-30T07:33:38;14.13;;;4.00;;
52798;SDS011;38667;42.872;74.622;2023-08-30T07:36:04;15.20;;;4.68;;
52798;SDS011;38667;42.872;74.622;2023-08-30T07:38:31;11.38;;;4.50;;
52798;SDS011;38667;42.872;74.622;2023-08-30T07:40:57;8.55;;;3.92;;
52798;SDS011;38667;42.872;74.622;2023-08-30T07:43:25;12.75;;;4.60;;
52798;SDS011;38667;42.872;74.622;2023-08-30T07:45:51;10.00;;;3.80;;
52798;SDS011;38667;42.872;74.622;2023-08-30T07:48:17;6.88;;;3.35;;
52798;SDS011;38667;42.872;74.622;2023-08-30T07:50:44;7.05;;;3.15;;
52798;SDS011;38667;42.872;74.622;2023-08-30T07:53:10;10.35;;;3.22;;
52798;SDS011;38667;42.872;74.622;2023-08-30T07:55:37;9.32;;;3.05;;
52798;SDS011;38667;42.872;74.622;2023-08-30T07:58:03;8.32;;;3.05;;
52798;SDS011;38667;42.872;74.622;2023-08-30T08:00:32;9.90;;;4.82;;
52798;SDS011;38667;42.872;74.622;2023-08-30T08:02:58;9.88;;;6.45;;
52798;SDS011;38667;42.872;74.622;2023-08-30T08:05:24;15.55;;;13.05;;
52798;SDS011;38667;42.872;74.622;2023-08-30T08:07:51;16.15;;;14.13;;
52798;SDS011;38667;42.872;74.622;2023-08-30T08:10:18;11.02;;;6.78;;
52798;SDS011;38667;42.872;74.622;2023-08-30T08:12:44;17.42;;;12.38;;
52798;SDS011;38667;42.872;74.622;2023-08-30T08:15:11;6.47;;;4.15;;
52798;SDS011;38667;42.872;74.622;2023-08-30T08:17:39;15.05;;;12.35;;
52798;SDS011;38667;42.872;74.622;2023-08-30T08:20:05;19.63;;;14.77;;
52798;SDS011;38667;42.872;74.622;2023-08-30T08:22:32;14.55;;;12.77;;
52798;SDS011;38667;42.872;74.622;2023-08-30T08:24:59;12.57;;;7.57;;
52798;SDS011;38667;42.872;74.622;2023-08-30T08:27:25;11.60;;;6.32;;
52798;SDS011;38667;42.872;74.622;2023-08-30T08:29:52;7.32;;;5.68;;
52798;SDS011;38667;42.872;74.622;2023-08-30T08:32:18;7.65;;;4.97;;
52798;SDS011;38667;42.872;74.622;2023-08-30T08:34:46;9.18;;;4.72;;
52798;SDS011;38667;42.872;74.622;2023-08-30T08:37:12;11.13;;;8.63;;
52798;SDS011;38667;42.872;74.622;2023-08-30T08:39:38;6.97;;;4.97;;
52798;SDS011;38667;42.872;74.622;2023-08-30T08:42:05;10.27;;;4.82;;
52798;SDS011;38667;42.872;74.622;2023-08-30T08:44:32;8.85;;;6.15;;
52798;SDS011;38667;42.872;74.622;2023-08-30T08:47:00;13.20;;;7.22;;
52798;SDS011;38667;42.872;74.622;2023-08-30T08:49:27;14.38;;;6.20;;
52798;SDS011;38667;42.872;74.622;2023-08-30T08:51:55;9.50;;;6.53;;
52798;SDS011;38667;42.872;74.622;2023-08-30T08:54:22;9.15;;;3.28;;
52798;SDS011;38667;42.872;74.622;2023-08-30T08:56:49;7.00;;;3.53;;
52798;SDS011;38667;42.872;74.622;2023-08-30T08:59:16;9.70;;;3.65;;
52798;SDS011;38667;42.872;74.622;2023-08-30T09:01:42;6.70;;;2.90;;
52798;SDS011;38667;42.872;74.622;2023-08-30T09:04:09;5.32;;;3.08;;
52798;SDS011;38667;42.872;74.622;2023-08-30T09:06:36;6.93;;;2.65;;
52798;SDS011;38667;42.872;74.622;2023-08-30T09:09:04;7.30;;;3.42;;
52798;SDS011;38667;42.872;74.622;2023-08-30T09:11:31;6.78;;;3.42;;
52798;SDS011;38667;42.872;74.622;2023-08-30T09:13:58;8.55;;;3.72;;
52798;SDS011;38667;42.872;74.622;2023-08-30T09:16:24;6.97;;;3.08;;
52798;SDS011;38667;42.872;74.622;2023-08-30T09:18:57;7.18;;;3.58;;
52798;SDS011;38667;42.872;74.622;2023-08-30T09:21:24;9.27;;;2.47;;
52798;SDS011;38667;42.872;74.622;2023-08-30T09:23:56;7.10;;;2.55;;
52798;SDS011;38667;42.872;74.622;2023-08-30T09:26:24;7.18;;;2.95;;
52798;SDS011;38667;42.872;74.622;2023-08-30T09:28:51;8.10;;;4.75;;
52798;SDS011;38667;42.872;74.622;2023-08-30T09:31:17;4.95;;;2.55;;
52798;SDS011;38667;42.872;74.622;2023-08-30T09:33:44;4.75;;;2.40;;
52798;SDS011;38667;42.872;74.622;2023-08-30T09:36:11;7.78;;;3.17;;
52798;SDS011;38667;42.872;74.622;2023-08-30T09:38:37;9.00;;;3.22;;
52798;SDS011;38667;42.872;74.622;2023-08-30T09:41:03;8.00;;;3.10;;
52798;SDS011;38667;42.872;74.622;2023-08-30T09:43:32;6.35;;;2.55;;
52798;SDS011;38667;42.872;74.622;2023-08-30T09:45:58;5.63;;;3.45;;
52798;SDS011;38667;42.872;74.622;2023-08-30T09:48:29;7.32;;;2.90;;
52798;SDS011;38667;42.872;74.622;2023-08-30T09:50:57;9.43;;;3.10;;
52798;SDS011;38667;42.872;74.622;2023-08-30T09:53:25;5.93;;;2.78;;
52798;SDS011;38667;42.872;74.622;2023-08-30T09:55:54;5.68;;;3.03;;
52798;SDS011;38667;42.872;74.622;2023-08-30T09:58:21;12.27;;;3.33;;
52798;SDS011;38667;42.872;74.622;2023-08-30T10:00:50;18.60;;;3.42;;
52798;SDS011;38667;42.872;74.622;2023-08-30T10:03:17;26.50;;;4.55;;
52798;SDS011;38667;42.872;74.622;2023-08-30T10:05:45;17.65;;;3.55;;
52798;SDS011;38667;42.872;74.622;2023-08-30T10:08:12;18.45;;;3.67;;
52798;SDS011;38667;42.872;74.622;2023-08-30T10:10:39;14.63;;;3.33;;
52798;SDS011;38667;42.872;74.622;2023-08-30T10:13:06;20.42;;;3.60;;
52798;SDS011;38667;42.872;74.622;2023-08-30T10:15:33;25.38;;;4.57;;
52798;SDS011;38667;42.872;74.622;2023-08-30T10:18:06;24.38;;;3.45;;
52798;SDS011;38667;42.872;74.622;2023-08-30T10:20:34;23.13;;;3.53;;
52798;SDS011;38667;42.872;74.622;2023-08-30T10:23:02;28.20;;;3.75;;
52798;SDS011;38667;42.872;74.622;2023-08-30T10:25:29;20.80;;;3.92;;
52798;SDS011;38667;42.872;74.622;2023-08-30T10:27:57;27.42;;;4.40;;
52798;SDS011;38667;42.872;74.622;2023-08-30T10:30:24;34.70;;;4.68;;
52798;SDS011;38667;42.872;74.622;2023-08-30T10:32:51;21.58;;;4.10;;
52798;SDS011;38667;42.872;74.622;2023-08-30T10:35:19;32.88;;;5.30;;
52798;SDS011;38667;42.872;74.622;2023-08-30T10:37:53;20.30;;;3.50;;
52798;SDS011;38667;42.872;74.622;2023-08-30T10:40:20;29.15;;;5.10;;
52798;SDS011;38667;42.872;74.622;2023-08-30T10:42:46;32.15;;;4.55;;
52798;SDS011;38667;42.872;74.622;2023-08-30T10:45:12;18.55;;;5.05;;
52798;SDS011;38667;42.872;74.622;2023-08-30T10:47:39;25.25;;;4.05;;
52798;SDS011;38667;42.872;74.622;2023-08-30T10:50:06;28.40;;;4.80;;
52798;SDS011;38667;42.872;74.622;2023-08-30T10:52:36;19.17;;;4.32;;
52798;SDS011;38667;42.872;74.622;2023-08-30T10:55:06;21.95;;;4.90;;
52798;SDS011;38667;42.872;74.622;2023-08-30T10:57:33;21.25;;;4.90;;
52798;SDS011;38667;42.872;74.622;2023-08-30T11:00:04;20.30;;;4.07;;
52798;SDS011;38667;42.872;74.622;2023-08-30T11:02:31;31.27;;;4.82;;
52798;SDS011;38667;42.872;74.622;2023-08-30T11:04:58;29.73;;;4.95;;
52798;SDS011;38667;42.872;74.622;2023-08-30T11:07:25;28.10;;;5.32;;
52798;SDS011;38667;42.872;74.622;2023-08-30T11:09:53;19.10;;;4.65;;
52798;SDS011;38667;42.872;74.622;2023-08-30T11:12:20;18.17;;;4.40;;
52798;SDS011;38667;42.872;74.622;2023-08-30T11:14:46;13.48;;;3.42;;
52798;SDS011;38667;42.872;74.622;2023-08-30T11:17:12;19.23;;;4.60;;
52798;SDS011;38667;42.872;74.622;2023-08-30T11:19:41;12.52;;;3.95;;
52798;SDS011;38667;42.872;74.622;2023-08-30T11:22:07;15.07;;;3.95;;
52798;SDS011;38667;42.872;74.622;2023-08-30T11:24:34;19.20;;;4.13;;
52798;SDS011;38667;42.872;74.622;2023-08-30T11:27:03;16.55;;;4.20;;
52798;SDS011;38667;42.872;74.622;2023-08-30T11:29:29;13.43;;;4.93;;
52798;SDS011;38667;42.872;74.622;2023-08-30T11:31:56;22.42;;;5.68;;
52798;SDS011;38667;42.872;74.622;2023-08-30T11:34:22;23.88;;;4.40;;
52798;SDS011;38667;42.872;74.622;2023-08-30T11:36:49;24.55;;;4.40;;
52798;SDS011;38667;42.872;74.622;2023-08-30T11:39:16;24.08;;;4.70;;
52798;SDS011;38667;42.872;74.622;2023-08-30T11:41:42;21.25;;;4.05;;
52798;SDS011;38667;42.872;74.622;2023-08-30T11:44:10;12.95;;;3.83;;
52798;SDS011;38667;42.872;74.622;2023-08-30T11:46:37;22.80;;;4.45;;
52798;SDS011;38667;42.872;74.622;2023-08-30T11:49:04;17.88;;;4.45;;
52798;SDS011;38667;42.872;74.622;2023-08-30T11:51:30;17.30;;;3.42;;
52798;SDS011;38667;42.872;74.622;2023-08-30T11:53:57;14.88;;;3.95;;
52798;SDS011;38667;42.872;74.622;2023-08-30T11:56:24;14.65;;;3.97;;
52798;SDS011;38667;42.872;74.622;2023-08-30T11:58:51;22.45;;;4.30;;
52798;SDS011;38667;42.872;74.622;2023-08-30T12:01:19;22.70;;;5.32;;
52798;SDS011;38667;42.872;74.622;2023-08-30T12:03:45;19.75;;;4.85;;
52798;SDS011;38667;42.872;74.622;2023-08-30T12:06:11;14.80;;;4.32;;
52798;SDS011;38667;42.872;74.622;2023-08-30T12:08:38;16.55;;;4.10;;
52798;SDS011;38667;42.872;74.622;2023-08-30T12:11:04;14.20;;;3.90;;
52798;SDS011;38667;42.872;74.622;2023-08-30T12:13:31;16.13;;;3.95;;
52798;SDS011;38667;42.872;74.622;2023-08-30T12:15:58;14.20;;;3.83;;
52798;SDS011;38667;42.872;74.622;2023-08-30T12:18:27;11.05;;;3.63;;
52798;SDS011;38667;42.872;74.622;2023-08-30T12:20:55;20.10;;;4.95;;
52798;SDS011;38667;42.872;74.622;2023-08-30T12:23:23;17.50;;;4.40;;
52798;SDS011;38667;42.872;74.622;2023-08-30T12:25:59;19.02;;;4.20;;
52798;SDS011;38667;42.872;74.622;2023-08-30T12:28:27;13.50;;;3.90;;
52798;SDS011;38667;42.872;74.622;2023-08-30T12:30:53;19.75;;;4.45;;
52798;SDS011;38667;42.872;74.622;2023-08-30T12:33:20;22.20;;;5.20;;
52798;SDS011;38667;42.872;74.622;2023-08-30T12:35:48;30.35;;;5.50;;
52798;SDS011;38667;42.872;74.622;2023-08-30T12:38:14;16.48;;;5.65;;
52798;SDS011;38667;42.872;74.622;2023-08-30T12:40:41;30.02;;;4.70;;
52798;SDS011;38667;42.872;74.622;2023-08-30T12:43:07;23.58;;;4.97;;
52798;SDS011;38667;42.872;74.622;2023-08-30T12:45:33;14.98;;;4.13;;
52798;SDS011;38667;42.872;74.622;2023-08-30T12:48:00;24.20;;;4.93;;
52798;SDS011;38667;42.872;74.622;2023-08-30T12:50:26;31.27;;;5.28;;
52798;SDS011;38667;42.872;74.622;2023-08-30T12:52:54;17.50;;;4.90;;
52798;SDS011;38667;42.872;74.622;2023-08-30T12:55:20;19.45;;;5.20;;
52798;SDS011;38667;42.872;74.622;2023-08-30T12:57:47;22.65;;;5.60;;
52798;SDS011;38667;42.872;74.622;2023-08-30T13:00:13;20.25;;;5.47;;
52798;SDS011;38667;42.872;74.622;2023-08-30T13:02:40;15.82;;;5.25;;
52798;SDS011;38667;42.872;74.622;2023-08-30T13:05:06;14.38;;;4.53;;
52798;SDS011;38667;42.872;74.622;2023-08-30T13:07:33;15.65;;;4.63;;
52798;SDS011;38667;42.872;74.622;2023-08-30T13:10:01;18.73;;;4.60;;
52798;SDS011;38667;42.872;74.622;2023-08-30T13:12:28;13.32;;;4.07;;
52798;SDS011;38667;42.872;74.622;2023-08-30T13:14:54;14.27;;;4.40;;
52798;SDS011;38667;42.872;74.622;2023-08-30T13:17:20;14.32;;;4.13;;
52798;SDS011;38667;42.872;74.622;2023-08-30T13:19:47;9.10;;;4.57;;
52798;SDS011;38667;42.872;74.622;2023-08-30T13:22:13;15.30;;;4.50;;
52798;SDS011;38667;42.872;74.622;2023-08-30T13:24:39;19.20;;;5.30;;
52798;SDS011;38667;42.872;74.622;2023-08-30T13:27:07;15.50;;;6.20;;
52798;SDS011;38667;42.872;74.622;2023-08-30T13:29:33;20.02;;;6.20;;
52798;SDS011;38667;42.872;74.622;2023-08-30T13:32:01;20.63;;;7.57;;
52798;SDS011;38667;42.872;74.622;2023-08-30T13:34:28;25.02;;;8.10;;
52798;SDS011;38667;42.872;74.622;2023-08-30T13:36:54;24.58;;;7.70;;
52798;SDS011;38667;42.872;74.622;2023-08-30T13:39:20;31.52;;;7.38;;
52798;SDS011;38667;42.872;74.622;2023-08-30T13:41:47;25.98;;;7.50;;
52798;SDS011;38667;42.872;74.622;2023-08-30T13:44:15;28.85;;;8.85;;
52798;SDS011;38667;42.872;74.622;2023-08-30T13:46:42;30.17;;;9.10;;
52798;SDS011;38667;42.872;74.622;2023-08-30T13:49:09;24.67;;;8.45;;
52798;SDS011;38667;42.872;74.622;2023-08-30T13:51:35;29.00;;;7.93;;
52798;SDS011;38667;42.872;74.622;2023-08-30T13:54:02;25.95;;;10.23;;
52798;SDS011;38667;42.872;74.622;2023-08-30T13:56:28;30.77;;;13.95;;
52798;SDS011;38667;42.872;74.622;2023-08-30T13:58:55;38.50;;;13.60;;
52798;SDS011;38667;42.872;74.622;2023-08-30T14:01:23;29.73;;;13.23;;
52798;SDS011;38667;42.872;74.622;2023-08-30T14:03:50;36.90;;;14.52;;
52798;SDS011;38667;42.872;74.622;2023-08-30T14:06:16;32.00;;;13.55;;
52798;SDS011;38667;42.872;74.622;2023-08-30T14:08:42;27.33;;;9.82;;
52798;SDS011;38667;42.872;74.622;2023-08-30T14:11:09;32.50;;;9.63;;
52798;SDS011;38667;42.872;74.622;2023-08-30T14:13:35;32.65;;;9.55;;
52798;SDS011;38667;42.872;74.622;2023-08-30T14:16:02;25.15;;;8.77;;
52798;SDS011;38667;42.872;74.622;2023-08-30T14:18:30;21.00;;;8.70;;
52798;SDS011;38667;42.872;74.622;2023-08-30T14:20:56;30.90;;;9.25;;
52798;SDS011;38667;42.872;74.622;2023-08-30T14:23:23;30.80;;;11.43;;
52798;SDS011;38667;42.872;74.622;2023-08-30T14:25:55;42.38;;;11.10;;